sensor_id;sensor_type;location;lat;lon;timestamp;P1;durP1;ratioP1;P2;durP2;ratioP2
30036;SDS011;36325;51.512;-0.382;2023-02-28T00:00:53;10.38;;;2.53;;
30036;SDS011;36325;51.512;-0.382;2023-02-28T00:03:20;14.15;;;2.88;;
30036;SDS011;36325;51.512;-0.382;2023-02-28T00:05:48;21.45;;;3.08;;
30036;SDS011;36325;51.512;-0.382;2023-02-28T00:08:16;11.13;;;2.38;;
30036;SDS011;36325;51.512;-0.382;2023-02-28T00:10:43;9.98;;;2.75;;
30036;SDS011;36325;51.512;-0.382;2023-02-28T00:13:10;9.05;;;2.40;;
30036;SDS011;36325;51.512;-0.382;2023-02-28T00:15:38;12.75;;;2.90;;
30036;SDS011;36325;51.512;-0.382;2023-02-28T00:20:35;10.32;;;3.08;;
30036;SDS011;36325;51.512;-0.382;2023-02-28T00:23:03;9.02;;;2.92;;
30036;SDS011;36325;51.512;-0.382;2023-02-28T00:25:30;11.10;;;3.22;;
30036;SDS011;36325;51.512;-0.382;2023-02-28T00:27:57;14.55;;;3.42;;
30036;SDS011;36325;51.512;-0.382;2023-02-28T00:30:25;13.93;;;3.20;;
30036;SDS011;36325;51.512;-0.382;2023-02-28T00:32:52;10.45;;;4.65;;
30036;SDS011;36325;51.512;-0.382;2023-02-28T00:35:19;14.45;;;3.85;;
30036;SDS011;36325;51.512;-0.382;2023-02-28T00:37:47;14.40;;;3.17;;
30036;SDS011;36325;51.512;-0.382;2023-02-28T00:40:15;10.30;;;3.83;;
30036;SDS011;36325;51.512;-0.382;2023-02-28T00:42:43;7.80;;;3.38;;
30036;SDS011;36325;51.512;-0.382;2023-02-28T00:45:10;11.65;;;3.53;;
30036;SDS011;36325;51.512;-0.382;2023-02-28T00:47:37;10.65;;;4.28;;
30036;SDS011;36325;51.512;-0.382;2023-02-28T00:50:05;14.30;;;3.50;;
30036;SDS011;36325;51.512;-0.382;2023-02-28T00:52:35;10.63;;;3.72;;
30036;SDS011;36325;51.512;-0.382;2023-02-28T00:55:03;13.75;;;3.85;;
30036;SDS011;36325;51.512;-0.382;2023-02-28T00:57:32;9.45;;;3.90;;
30036;SDS011;36325;51.512;-0.382;2023-02-28T00:59:59;9.73;;;3.90;;
30036;SDS011;36325;51.512;-0.382;2023-02-28T01:02:26;14.90;;;3.35;;
30036;SDS011;36325;51.512;-0.382;2023-02-28T01:04:53;9.40;;;3.70;;
30036;SDS011;36325;51.512;-0.382;2023-02-28T01:07:21;7.55;;;3.50;;
30036;SDS011;36325;51.512;-0.382;2023-02-28T01:09:48;15.48;;;3.70;;
30036;SDS011;36325;51.512;-0.382;2023-02-28T01:12:16;11.18;;;3.70;;
30036;SDS011;36325;51.512;-0.382;2023-02-28T01:14:45;8.30;;;3.42;;
30036;SDS011;36325;51.512;-0.382;2023-02-28T01:17:13;16.75;;;4.22;;
30036;SDS011;36325;51.512;-0.382;2023-02-28T01:19:40;12.23;;;3.60;;
30036;SDS011;36325;51.512;-0.382;2023-02-28T01:22:08;16.60;;;4.20;;
30036;SDS011;36325;51.512;-0.382;2023-02-28T01:24:36;20.98;;;4.82;;
30036;SDS011;36325;51.512;-0.382;2023-02-28T01:27:04;24.40;;;4.65;;
30036;SDS011;36325;51.512;-0.382;2023-02-28T01:29:31;17.85;;;3.95;;
30036;SDS011;36325;51.512;-0.382;2023-02-28T01:31:59;11.98;;;3.38;;
30036;SDS011;36325;51.512;-0.382;2023-02-28T01:34:26;14.32;;;4.07;;
30036;SDS011;36325;51.512;-0.382;2023-02-28T01:36:53;13.60;;;5.22;;
30036;SDS011;36325;51.512;-0.382;2023-02-28T01:39:21;11.32;;;4.05;;
30036;SDS011;36325;51.512;-0.382;2023-02-28T01:41:49;8.65;;;3.90;;
30036;SDS011;36325;51.512;-0.382;2023-02-28T01:47:21;13.80;;;4.70;;
30036;SDS011;36325;51.512;-0.382;2023-02-28T01:49:49;8.02;;;4.10;;
30036;SDS011;36325;51.512;-0.382;2023-02-28T01:52:18;22.38;;;5.60;;
30036;SDS011;36325;51.512;-0.382;2023-02-28T01:54:48;22.63;;;6.72;;
30036;SDS011;36325;51.512;-0.382;2023-02-28T01:57:30;16.05;;;5.30;;
30036;SDS011;36325;51.512;-0.382;2023-02-28T02:00:06;19.50;;;5.00;;
30036;SDS011;36325;51.512;-0.382;2023-02-28T02:02:40;14.90;;;4.63;;
30036;SDS011;36325;51.512;-0.382;2023-02-28T02:05:11;15.93;;;4.80;;
30036;SDS011;36325;51.512;-0.382;2023-02-28T02:07:42;11.07;;;4.68;;
30036;SDS011;36325;51.512;-0.382;2023-02-28T02:13:05;17.85;;;5.25;;
30036;SDS011;36325;51.512;-0.382;2023-02-28T02:26:20;20.48;;;6.68;;
30036;SDS011;36325;51.512;-0.382;2023-02-28T02:31:59;20.10;;;5.38;;
30036;SDS011;36325;51.512;-0.382;2023-02-28T02:42:16;12.25;;;4.53;;
30036;SDS011;36325;51.512;-0.382;2023-02-28T02:45:00;20.42;;;5.90;;
30036;SDS011;36325;51.512;-0.382;2023-02-28T02:47:33;21.38;;;5.80;;
30036;SDS011;36325;51.512;-0.382;2023-02-28T02:50:04;15.93;;;5.32;;
30036;SDS011;36325;51.512;-0.382;2023-02-28T02:52:36;13.52;;;5.45;;
30036;SDS011;36325;51.512;-0.382;2023-02-28T02:55:09;13.35;;;6.00;;
30036;SDS011;36325;51.512;-0.382;2023-02-28T03:00:19;18.55;;;6.18;;
30036;SDS011;36325;51.512;-0.382;2023-02-28T03:02:50;28.58;;;7.47;;
30036;SDS011;36325;51.512;-0.382;2023-02-28T03:05:25;23.85;;;6.75;;
30036;SDS011;36325;51.512;-0.382;2023-02-28T03:07:55;18.33;;;6.95;;
30036;SDS011;36325;51.512;-0.382;2023-02-28T03:10:42;17.02;;;6.65;;
30036;SDS011;36325;51.512;-0.382;2023-02-28T03:30:36;24.15;;;9.25;;
30036;SDS011;36325;51.512;-0.382;2023-02-28T03:33:19;18.30;;;7.32;;
30036;SDS011;36325;51.512;-0.382;2023-02-28T03:36:00;18.83;;;7.43;;
30036;SDS011;36325;51.512;-0.382;2023-02-28T03:38:33;22.38;;;7.80;;
30036;SDS011;36325;51.512;-0.382;2023-02-28T03:41:10;20.33;;;7.90;;
30036;SDS011;36325;51.512;-0.382;2023-02-28T03:43:43;20.75;;;7.63;;
30036;SDS011;36325;51.512;-0.382;2023-02-28T03:46:16;18.08;;;8.98;;
30036;SDS011;36325;51.512;-0.382;2023-02-28T03:49:02;27.90;;;8.15;;
30036;SDS011;36325;51.512;-0.382;2023-02-28T03:51:34;20.85;;;8.55;;
30036;SDS011;36325;51.512;-0.382;2023-02-28T03:54:15;18.98;;;7.65;;
30036;SDS011;36325;51.512;-0.382;2023-02-28T03:57:12;20.60;;;7.47;;
30036;SDS011;36325;51.512;-0.382;2023-02-28T03:59:51;23.25;;;8.88;;
30036;SDS011;36325;51.512;-0.382;2023-02-28T04:02:26;22.17;;;8.95;;
30036;SDS011;36325;51.512;-0.382;2023-02-28T04:04:56;18.38;;;8.55;;
30036;SDS011;36325;51.512;-0.382;2023-02-28T04:07:23;19.30;;;7.57;;
30036;SDS011;36325;51.512;-0.382;2023-02-28T04:09:51;21.65;;;8.77;;
30036;SDS011;36325;51.512;-0.382;2023-02-28T04:12:18;26.52;;;7.93;;
30036;SDS011;36325;51.512;-0.382;2023-02-28T04:14:46;25.40;;;8.05;;
30036;SDS011;36325;51.512;-0.382;2023-02-28T04:17:13;27.52;;;8.70;;
30036;SDS011;36325;51.512;-0.382;2023-02-28T04:19:40;18.73;;;8.13;;
30036;SDS011;36325;51.512;-0.382;2023-02-28T04:22:08;23.05;;;7.40;;
30036;SDS011;36325;51.512;-0.382;2023-02-28T04:24:35;23.20;;;7.28;;
30036;SDS011;36325;51.512;-0.382;2023-02-28T04:27:03;28.25;;;7.80;;
30036;SDS011;36325;51.512;-0.382;2023-02-28T04:29:31;21.67;;;8.18;;
30036;SDS011;36325;51.512;-0.382;2023-02-28T04:32:02;19.70;;;7.68;;
30036;SDS011;36325;51.512;-0.382;2023-02-28T04:34:30;31.65;;;6.95;;
30036;SDS011;36325;51.512;-0.382;2023-02-28T04:36:59;22.88;;;7.50;;
30036;SDS011;36325;51.512;-0.382;2023-02-28T04:39:39;19.48;;;7.57;;
30036;SDS011;36325;51.512;-0.382;2023-02-28T04:42:06;21.50;;;8.65;;
30036;SDS011;36325;51.512;-0.382;2023-02-28T04:44:35;16.13;;;7.28;;
30036;SDS011;36325;51.512;-0.382;2023-02-28T04:47:03;17.40;;;6.60;;
30036;SDS011;36325;51.512;-0.382;2023-02-28T04:49:30;18.48;;;7.85;;
30036;SDS011;36325;51.512;-0.382;2023-02-28T04:51:57;22.95;;;7.07;;
30036;SDS011;36325;51.512;-0.382;2023-02-28T04:54:24;17.05;;;7.00;;
30036;SDS011;36325;51.512;-0.382;2023-02-28T04:56:52;23.88;;;7.55;;
30036;SDS011;36325;51.512;-0.382;2023-02-28T04:59:19;22.95;;;7.22;;
30036;SDS011;36325;51.512;-0.382;2023-02-28T05:01:47;19.08;;;6.95;;
30036;SDS011;36325;51.512;-0.382;2023-02-28T05:04:15;17.20;;;7.15;;
30036;SDS011;36325;51.512;-0.382;2023-02-28T05:06:43;17.25;;;6.35;;
30036;SDS011;36325;51.512;-0.382;2023-02-28T05:09:11;23.95;;;6.60;;
30036;SDS011;36325;51.512;-0.382;2023-02-28T05:11:38;17.63;;;6.72;;
30036;SDS011;36325;51.512;-0.382;2023-02-28T05:14:10;14.45;;;6.90;;
30036;SDS011;36325;51.512;-0.382;2023-02-28T05:16:50;13.15;;;5.97;;
30036;SDS011;36325;51.512;-0.382;2023-02-28T05:19:22;17.77;;;5.80;;
30036;SDS011;36325;51.512;-0.382;2023-02-28T05:21:51;20.20;;;6.88;;
30036;SDS011;36325;51.512;-0.382;2023-02-28T05:24:19;22.05;;;7.13;;
30036;SDS011;36325;51.512;-0.382;2023-02-28T05:26:50;19.77;;;6.68;;
30036;SDS011;36325;51.512;-0.382;2023-02-28T05:29:18;14.85;;;6.00;;
30036;SDS011;36325;51.512;-0.382;2023-02-28T05:31:46;17.38;;;6.88;;
30036;SDS011;36325;51.512;-0.382;2023-02-28T05:34:13;17.25;;;7.00;;
30036;SDS011;36325;51.512;-0.382;2023-02-28T05:36:42;23.83;;;8.65;;
30036;SDS011;36325;51.512;-0.382;2023-02-28T05:39:10;22.42;;;7.70;;
30036;SDS011;36325;51.512;-0.382;2023-02-28T05:41:43;21.60;;;8.13;;
30036;SDS011;36325;51.512;-0.382;2023-02-28T05:44:10;25.73;;;7.72;;
30036;SDS011;36325;51.512;-0.382;2023-02-28T05:46:38;14.80;;;7.38;;
30036;SDS011;36325;51.512;-0.382;2023-02-28T05:49:06;20.75;;;8.23;;
30036;SDS011;36325;51.512;-0.382;2023-02-28T05:51:34;19.23;;;8.63;;
30036;SDS011;36325;51.512;-0.382;2023-02-28T05:54:02;20.13;;;8.35;;
30036;SDS011;36325;51.512;-0.382;2023-02-28T05:56:30;20.75;;;8.57;;
30036;SDS011;36325;51.512;-0.382;2023-02-28T05:58:57;23.77;;;8.38;;
30036;SDS011;36325;51.512;-0.382;2023-02-28T06:01:32;19.25;;;8.55;;
30036;SDS011;36325;51.512;-0.382;2023-02-28T06:04:04;19.27;;;8.82;;
30036;SDS011;36325;51.512;-0.382;2023-02-28T06:06:37;19.63;;;8.93;;
30036;SDS011;36325;51.512;-0.382;2023-02-28T06:09:05;18.55;;;8.68;;
30036;SDS011;36325;51.512;-0.382;2023-02-28T06:11:33;20.77;;;8.73;;
30036;SDS011;36325;51.512;-0.382;2023-02-28T06:14:00;26.33;;;8.65;;
30036;SDS011;36325;51.512;-0.382;2023-02-28T06:16:28;26.60;;;9.57;;
30036;SDS011;36325;51.512;-0.382;2023-02-28T06:18:57;20.45;;;9.23;;
30036;SDS011;36325;51.512;-0.382;2023-02-28T06:21:25;22.92;;;8.80;;
30036;SDS011;36325;51.512;-0.382;2023-02-28T06:23:57;24.42;;;8.98;;
30036;SDS011;36325;51.512;-0.382;2023-02-28T06:26:25;25.20;;;11.63;;
30036;SDS011;36325;51.512;-0.382;2023-02-28T06:28:53;25.45;;;10.65;;
30036;SDS011;36325;51.512;-0.382;2023-02-28T06:31:21;25.52;;;11.00;;
30036;SDS011;36325;51.512;-0.382;2023-02-28T06:33:52;28.88;;;11.15;;
30036;SDS011;36325;51.512;-0.382;2023-02-28T06:36:19;25.17;;;10.45;;
30036;SDS011;36325;51.512;-0.382;2023-02-28T06:38:46;26.83;;;11.13;;
30036;SDS011;36325;51.512;-0.382;2023-02-28T06:41:17;26.13;;;12.43;;
30036;SDS011;36325;51.512;-0.382;2023-02-28T06:43:45;27.33;;;11.77;;
30036;SDS011;36325;51.512;-0.382;2023-02-28T06:46:12;24.85;;;10.10;;
30036;SDS011;36325;51.512;-0.382;2023-02-28T06:48:42;35.50;;;12.27;;
30036;SDS011;36325;51.512;-0.382;2023-02-28T06:51:12;30.77;;;12.20;;
30036;SDS011;36325;51.512;-0.382;2023-02-28T06:53:50;25.85;;;11.32;;
30036;SDS011;36325;51.512;-0.382;2023-02-28T06:56:18;36.65;;;13.75;;
30036;SDS011;36325;51.512;-0.382;2023-02-28T06:58:47;29.40;;;12.38;;
30036;SDS011;36325;51.512;-0.382;2023-02-28T07:01:16;33.28;;;12.57;;
30036;SDS011;36325;51.512;-0.382;2023-02-28T07:03:43;33.83;;;12.07;;
30036;SDS011;36325;51.512;-0.382;2023-02-28T07:06:11;30.05;;;11.55;;
30036;SDS011;36325;51.512;-0.382;2023-02-28T07:08:39;26.67;;;12.10;;
30036;SDS011;36325;51.512;-0.382;2023-02-28T07:11:07;20.17;;;9.48;;
30036;SDS011;36325;51.512;-0.382;2023-02-28T07:13:35;28.88;;;11.55;;
30036;SDS011;36325;51.512;-0.382;2023-02-28T07:16:03;26.23;;;11.48;;
30036;SDS011;36325;51.512;-0.382;2023-02-28T07:18:32;27.65;;;10.48;;
30036;SDS011;36325;51.512;-0.382;2023-02-28T07:21:01;27.30;;;11.55;;
30036;SDS011;36325;51.512;-0.382;2023-02-28T07:23:29;25.95;;;10.95;;
30036;SDS011;36325;51.512;-0.382;2023-02-28T07:25:56;21.38;;;10.95;;
30036;SDS011;36325;51.512;-0.382;2023-02-28T07:28:24;22.90;;;10.90;;
30036;SDS011;36325;51.512;-0.382;2023-02-28T07:30:53;22.83;;;9.98;;
30036;SDS011;36325;51.512;-0.382;2023-02-28T07:33:20;18.02;;;8.95;;
30036;SDS011;36325;51.512;-0.382;2023-02-28T07:35:48;22.23;;;9.45;;
30036;SDS011;36325;51.512;-0.382;2023-02-28T07:38:15;21.58;;;9.73;;
30036;SDS011;36325;51.512;-0.382;2023-02-28T07:40:42;24.73;;;10.15;;
30036;SDS011;36325;51.512;-0.382;2023-02-28T07:43:09;20.80;;;9.15;;
30036;SDS011;36325;51.512;-0.382;2023-02-28T07:45:37;20.30;;;9.23;;
30036;SDS011;36325;51.512;-0.382;2023-02-28T07:48:05;22.33;;;8.70;;
30036;SDS011;36325;51.512;-0.382;2023-02-28T07:50:34;19.15;;;8.18;;
30036;SDS011;36325;51.512;-0.382;2023-02-28T07:53:01;20.92;;;9.00;;
30036;SDS011;36325;51.512;-0.382;2023-02-28T07:55:29;18.10;;;8.13;;
30036;SDS011;36325;51.512;-0.382;2023-02-28T07:57:57;25.00;;;8.38;;
30036;SDS011;36325;51.512;-0.382;2023-02-28T08:00:25;18.75;;;7.85;;
30036;SDS011;36325;51.512;-0.382;2023-02-28T08:02:52;18.45;;;8.48;;
30036;SDS011;36325;51.512;-0.382;2023-02-28T08:05:20;17.88;;;7.53;;
30036;SDS011;36325;51.512;-0.382;2023-02-28T08:07:48;14.25;;;7.25;;
30036;SDS011;36325;51.512;-0.382;2023-02-28T08:10:16;16.92;;;8.63;;
30036;SDS011;36325;51.512;-0.382;2023-02-28T08:12:44;15.50;;;7.30;;
30036;SDS011;36325;51.512;-0.382;2023-02-28T08:15:12;17.92;;;8.23;;
30036;SDS011;36325;51.512;-0.382;2023-02-28T08:17:39;12.20;;;6.43;;
30036;SDS011;36325;51.512;-0.382;2023-02-28T08:20:07;16.23;;;6.88;;
30036;SDS011;36325;51.512;-0.382;2023-02-28T08:22:36;14.50;;;6.47;;
30036;SDS011;36325;51.512;-0.382;2023-02-28T08:25:04;15.32;;;6.10;;
30036;SDS011;36325;51.512;-0.382;2023-02-28T08:27:34;14.18;;;7.25;;
30036;SDS011;36325;51.512;-0.382;2023-02-28T08:30:02;16.23;;;6.50;;
30036;SDS011;36325;51.512;-0.382;2023-02-28T08:32:31;14.95;;;6.43;;
30036;SDS011;36325;51.512;-0.382;2023-02-28T08:34:59;18.05;;;6.32;;
30036;SDS011;36325;51.512;-0.382;2023-02-28T08:37:28;13.52;;;6.35;;
30036;SDS011;36325;51.512;-0.382;2023-02-28T08:39:55;12.57;;;6.40;;
30036;SDS011;36325;51.512;-0.382;2023-02-28T08:42:24;14.93;;;6.80;;
30036;SDS011;36325;51.512;-0.382;2023-02-28T08:44:51;15.43;;;6.47;;
30036;SDS011;36325;51.512;-0.382;2023-02-28T08:47:22;12.80;;;5.47;;
30036;SDS011;36325;51.512;-0.382;2023-02-28T08:49:49;11.88;;;5.20;;
30036;SDS011;36325;51.512;-0.382;2023-02-28T08:52:16;11.85;;;5.20;;
30036;SDS011;36325;51.512;-0.382;2023-02-28T08:54:44;9.10;;;4.93;;
30036;SDS011;36325;51.512;-0.382;2023-02-28T08:57:12;8.93;;;4.80;;
30036;SDS011;36325;51.512;-0.382;2023-02-28T08:59:40;12.55;;;5.50;;
30036;SDS011;36325;51.512;-0.382;2023-02-28T09:02:08;7.05;;;4.55;;
30036;SDS011;36325;51.512;-0.382;2023-02-28T09:04:39;10.45;;;4.88;;
30036;SDS011;36325;51.512;-0.382;2023-02-28T09:07:06;12.77;;;5.25;;
30036;SDS011;36325;51.512;-0.382;2023-02-28T09:09:34;9.05;;;4.53;;
30036;SDS011;36325;51.512;-0.382;2023-02-28T09:12:01;9.52;;;4.35;;
30036;SDS011;36325;51.512;-0.382;2023-02-28T09:14:29;7.60;;;4.40;;
30036;SDS011;36325;51.512;-0.382;2023-02-28T09:16:57;6.97;;;3.85;;
30036;SDS011;36325;51.512;-0.382;2023-02-28T09:19:25;11.02;;;3.92;;
30036;SDS011;36325;51.512;-0.382;2023-02-28T09:21:52;9.35;;;4.00;;
30036;SDS011;36325;51.512;-0.382;2023-02-28T09:24:19;10.68;;;3.78;;
30036;SDS011;36325;51.512;-0.382;2023-02-28T09:26:47;7.88;;;4.22;;
30036;SDS011;36325;51.512;-0.382;2023-02-28T09:29:29;7.25;;;3.22;;
30036;SDS011;36325;51.512;-0.382;2023-02-28T09:32:00;14.23;;;4.93;;
30036;SDS011;36325;51.512;-0.382;2023-02-28T09:34:28;7.28;;;3.67;;
30036;SDS011;36325;51.512;-0.382;2023-02-28T09:36:57;8.98;;;3.00;;
30036;SDS011;36325;51.512;-0.382;2023-02-28T09:39:24;6.15;;;3.10;;
30036;SDS011;36325;51.512;-0.382;2023-02-28T09:41:53;16.08;;;3.30;;
30036;SDS011;36325;51.512;-0.382;2023-02-28T09:46:55;5.57;;;2.95;;
30036;SDS011;36325;51.512;-0.382;2023-02-28T09:49:36;6.97;;;3.20;;
30036;SDS011;36325;51.512;-0.382;2023-02-28T09:52:10;6.75;;;2.75;;
30036;SDS011;36325;51.512;-0.382;2023-02-28T09:54:44;3.05;;;2.00;;
30036;SDS011;36325;51.512;-0.382;2023-02-28T09:57:18;5.88;;;2.83;;
30036;SDS011;36325;51.512;-0.382;2023-02-28T10:03:09;5.55;;;2.67;;
30036;SDS011;36325;51.512;-0.382;2023-02-28T10:05:41;4.63;;;2.38;;
30036;SDS011;36325;51.512;-0.382;2023-02-28T10:08:23;7.28;;;2.72;;
30036;SDS011;36325;51.512;-0.382;2023-02-28T10:10:59;4.10;;;2.58;;
30036;SDS011;36325;51.512;-0.382;2023-02-28T10:16:11;4.30;;;2.20;;
30036;SDS011;36325;51.512;-0.382;2023-02-28T10:21:24;4.75;;;3.03;;
30036;SDS011;36325;51.512;-0.382;2023-02-28T10:23:55;4.05;;;1.83;;
30036;SDS011;36325;51.512;-0.382;2023-02-28T10:26:28;9.45;;;2.10;;
30036;SDS011;36325;51.512;-0.382;2023-02-28T10:29:07;5.00;;;2.05;;
30036;SDS011;36325;51.512;-0.382;2023-02-28T10:31:35;2.30;;;1.58;;
30036;SDS011;36325;51.512;-0.382;2023-02-28T10:34:02;3.08;;;1.20;;
30036;SDS011;36325;51.512;-0.382;2023-02-28T10:36:30;3.60;;;1.88;;
30036;SDS011;36325;51.512;-0.382;2023-02-28T10:39:01;2.50;;;1.38;;
30036;SDS011;36325;51.512;-0.382;2023-02-28T10:42:22;4.38;;;1.38;;
30036;SDS011;36325;51.512;-0.382;2023-02-28T10:45:05;4.70;;;1.70;;
30036;SDS011;36325;51.512;-0.382;2023-02-28T10:50:25;6.68;;;2.15;;
30036;SDS011;36325;51.512;-0.382;2023-02-28T10:55:57;3.83;;;1.60;;
30036;SDS011;36325;51.512;-0.382;2023-02-28T10:59:23;6.20;;;1.80;;
30036;SDS011;36325;51.512;-0.382;2023-02-28T11:01:41;4.53;;;1.95;;
30036;SDS011;36325;51.512;-0.382;2023-02-28T11:04:19;2.90;;;2.13;;
30036;SDS011;36325;51.512;-0.382;2023-02-28T11:07:00;4.63;;;1.55;;
30036;SDS011;36325;51.512;-0.382;2023-02-28T11:09:33;2.38;;;1.35;;
30036;SDS011;36325;51.512;-0.382;2023-02-28T11:12:02;2.30;;;1.48;;
30036;SDS011;36325;51.512;-0.382;2023-02-28T11:14:35;4.83;;;2.03;;
30036;SDS011;36325;51.512;-0.382;2023-02-28T11:17:24;9.07;;;2.33;;
30036;SDS011;36325;51.512;-0.382;2023-02-28T11:19:57;3.85;;;2.03;;
30036;SDS011;36325;51.512;-0.382;2023-02-28T11:22:31;2.88;;;1.88;;
30036;SDS011;36325;51.512;-0.382;2023-02-28T11:25:48;4.95;;;2.67;;
30036;SDS011;36325;51.512;-0.382;2023-02-28T11:27:59;3.70;;;1.60;;
30036;SDS011;36325;51.512;-0.382;2023-02-28T11:30:34;4.80;;;1.75;;
30036;SDS011;36325;51.512;-0.382;2023-02-28T11:36:13;17.95;;;3.20;;
30036;SDS011;36325;51.512;-0.382;2023-02-28T11:38:48;8.02;;;2.75;;
30036;SDS011;36325;51.512;-0.382;2023-02-28T11:46:50;10.15;;;4.80;;
30036;SDS011;36325;51.512;-0.382;2023-02-28T11:49:22;8.02;;;4.38;;
30036;SDS011;36325;51.512;-0.382;2023-02-28T11:52:02;9.43;;;4.60;;
30036;SDS011;36325;51.512;-0.382;2023-02-28T11:54:57;11.30;;;4.70;;
30036;SDS011;36325;51.512;-0.382;2023-02-28T12:00:15;8.73;;;4.30;;
30036;SDS011;36325;51.512;-0.382;2023-02-28T12:02:57;9.07;;;5.00;;
30036;SDS011;36325;51.512;-0.382;2023-02-28T12:08:22;8.68;;;4.07;;
30036;SDS011;36325;51.512;-0.382;2023-02-28T12:11:06;8.25;;;3.95;;
30036;SDS011;36325;51.512;-0.382;2023-02-28T12:19:24;5.40;;;3.35;;
30036;SDS011;36325;51.512;-0.382;2023-02-28T12:22:10;7.80;;;3.85;;
30036;SDS011;36325;51.512;-0.382;2023-02-28T12:27:22;7.20;;;4.10;;
30036;SDS011;36325;51.512;-0.382;2023-02-28T12:32:35;10.45;;;4.35;;
30036;SDS011;36325;51.512;-0.382;2023-02-28T12:37:38;7.90;;;3.60;;
30036;SDS011;36325;51.512;-0.382;2023-02-28T12:40:17;4.97;;;3.17;;
30036;SDS011;36325;51.512;-0.382;2023-02-28T12:42:58;5.68;;;3.17;;
30036;SDS011;36325;51.512;-0.382;2023-02-28T12:48:32;6.75;;;2.95;;
30036;SDS011;36325;51.512;-0.382;2023-02-28T12:51:06;7.07;;;3.42;;
30036;SDS011;36325;51.512;-0.382;2023-02-28T12:56:35;4.05;;;2.30;;
30036;SDS011;36325;51.512;-0.382;2023-02-28T13:04:30;6.90;;;3.28;;
30036;SDS011;36325;51.512;-0.382;2023-02-28T13:09:55;8.68;;;2.70;;
30036;SDS011;36325;51.512;-0.382;2023-02-28T13:12:26;4.35;;;2.50;;
30036;SDS011;36325;51.512;-0.382;2023-02-28T13:15:04;6.15;;;3.42;;
30036;SDS011;36325;51.512;-0.382;2023-02-28T13:17:43;6.65;;;2.90;;
30036;SDS011;36325;51.512;-0.382;2023-02-28T13:20:23;4.32;;;2.20;;
30036;SDS011;36325;51.512;-0.382;2023-02-28T13:23:02;4.03;;;2.30;;
30036;SDS011;36325;51.512;-0.382;2023-02-28T13:28:09;4.68;;;2.15;;
30036;SDS011;36325;51.512;-0.382;2023-02-28T13:38:59;4.50;;;2.42;;
30036;SDS011;36325;51.512;-0.382;2023-02-28T13:44:02;5.82;;;2.40;;
30036;SDS011;36325;51.512;-0.382;2023-02-28T13:51:52;4.38;;;2.15;;
30036;SDS011;36325;51.512;-0.382;2023-02-28T13:57:41;4.90;;;1.92;;
30036;SDS011;36325;51.512;-0.382;2023-02-28T14:06:16;1.40;;;0.73;;
30036;SDS011;36325;51.512;-0.382;2023-02-28T14:09:01;3.78;;;1.85;;
30036;SDS011;36325;51.512;-0.382;2023-02-28T14:11:35;3.08;;;1.30;;
30036;SDS011;36325;51.512;-0.382;2023-02-28T14:14:05;2.50;;;1.00;;
30036;SDS011;36325;51.512;-0.382;2023-02-28T14:16:47;2.30;;;1.40;;
30036;SDS011;36325;51.512;-0.382;2023-02-28T14:19:26;2.70;;;1.00;;
30036;SDS011;36325;51.512;-0.382;2023-02-28T14:24:42;1.50;;;0.85;;
30036;SDS011;36325;51.512;-0.382;2023-02-28T14:38:17;3.20;;;1.30;;
30036;SDS011;36325;51.512;-0.382;2023-02-28T14:40:48;3.55;;;1.30;;
30036;SDS011;36325;51.512;-0.382;2023-02-28T14:45:53;7.78;;;1.20;;
30036;SDS011;36325;51.512;-0.382;2023-02-28T14:48:28;2.78;;;0.90;;
30036;SDS011;36325;51.512;-0.382;2023-02-28T14:50:59;3.90;;;1.25;;
30036;SDS011;36325;51.512;-0.382;2023-02-28T14:53:29;4.25;;;2.00;;
30036;SDS011;36325;51.512;-0.382;2023-02-28T14:56:01;5.15;;;2.28;;
30036;SDS011;36325;51.512;-0.382;2023-02-28T14:58:29;3.90;;;1.58;;
30036;SDS011;36325;51.512;-0.382;2023-02-28T15:00:59;2.65;;;1.40;;
30036;SDS011;36325;51.512;-0.382;2023-02-28T15:03:35;3.35;;;1.38;;
30036;SDS011;36325;51.512;-0.382;2023-02-28T15:06:05;4.88;;;0.85;;
30036;SDS011;36325;51.512;-0.382;2023-02-28T15:08:41;4.32;;;0.85;;
30036;SDS011;36325;51.512;-0.382;2023-02-28T15:11:11;2.75;;;1.25;;
30036;SDS011;36325;51.512;-0.382;2023-02-28T15:13:40;5.10;;;1.30;;
30036;SDS011;36325;51.512;-0.382;2023-02-28T15:16:13;5.05;;;1.83;;
30036;SDS011;36325;51.512;-0.382;2023-02-28T15:19:05;6.90;;;1.90;;
30036;SDS011;36325;51.512;-0.382;2023-02-28T15:21:44;8.27;;;1.35;;
30036;SDS011;36325;51.512;-0.382;2023-02-28T15:24:25;4.80;;;1.25;;
30036;SDS011;36325;51.512;-0.382;2023-02-28T15:26:54;6.38;;;1.95;;
30036;SDS011;36325;51.512;-0.382;2023-02-28T15:29:44;1.65;;;0.90;;
30036;SDS011;36325;51.512;-0.382;2023-02-28T15:34:58;9.30;;;1.80;;
30036;SDS011;36325;51.512;-0.382;2023-02-28T15:37:47;3.78;;;1.00;;
30036;SDS011;36325;51.512;-0.382;2023-02-28T15:45:46;5.00;;;1.20;;
30036;SDS011;36325;51.512;-0.382;2023-02-28T15:51:12;2.90;;;1.13;;
30036;SDS011;36325;51.512;-0.382;2023-02-28T15:54:05;3.08;;;1.45;;
30036;SDS011;36325;51.512;-0.382;2023-02-28T15:56:43;5.35;;;1.55;;
30036;SDS011;36325;51.512;-0.382;2023-02-28T15:59:22;4.53;;;1.40;;
30036;SDS011;36325;51.512;-0.382;2023-02-28T16:04:59;2.75;;;1.50;;
30036;SDS011;36325;51.512;-0.382;2023-02-28T16:07:47;3.72;;;1.77;;
30036;SDS011;36325;51.512;-0.382;2023-02-28T16:10:15;5.88;;;1.30;;
30036;SDS011;36325;51.512;-0.382;2023-02-28T16:12:42;3.42;;;1.10;;
30036;SDS011;36325;51.512;-0.382;2023-02-28T16:17:49;2.35;;;1.00;;
30036;SDS011;36325;51.512;-0.382;2023-02-28T16:22:46;3.22;;;0.75;;
30036;SDS011;36325;51.512;-0.382;2023-02-28T16:25:13;1.48;;;0.82;;
30036;SDS011;36325;51.512;-0.382;2023-02-28T16:27:44;2.47;;;0.63;;
30036;SDS011;36325;51.512;-0.382;2023-02-28T16:30:21;4.72;;;1.10;;
30036;SDS011;36325;51.512;-0.382;2023-02-28T16:32:52;2.80;;;1.20;;
30036;SDS011;36325;51.512;-0.382;2023-02-28T16:35:21;5.68;;;1.40;;
30036;SDS011;36325;51.512;-0.382;2023-02-28T16:37:52;3.38;;;0.93;;
30036;SDS011;36325;51.512;-0.382;2023-02-28T16:40:24;6.07;;;1.02;;
30036;SDS011;36325;51.512;-0.382;2023-02-28T16:42:57;2.80;;;0.85;;
30036;SDS011;36325;51.512;-0.382;2023-02-28T16:45:27;1.98;;;0.98;;
30036;SDS011;36325;51.512;-0.382;2023-02-28T16:47:56;1.73;;;1.08;;
30036;SDS011;36325;51.512;-0.382;2023-02-28T16:50:24;1.77;;;0.60;;
30036;SDS011;36325;51.512;-0.382;2023-02-28T16:52:53;2.90;;;0.90;;
30036;SDS011;36325;51.512;-0.382;2023-02-28T16:55:22;6.18;;;1.58;;
30036;SDS011;36325;51.512;-0.382;2023-02-28T16:57:54;4.93;;;1.27;;
30036;SDS011;36325;51.512;-0.382;2023-02-28T17:00:24;6.28;;;2.28;;
30036;SDS011;36325;51.512;-0.382;2023-02-28T17:02:53;7.35;;;1.60;;
30036;SDS011;36325;51.512;-0.382;2023-02-28T17:05:21;1.23;;;0.75;;
30036;SDS011;36325;51.512;-0.382;2023-02-28T17:07:49;3.38;;;1.23;;
30036;SDS011;36325;51.512;-0.382;2023-02-28T17:10:19;19.20;;;7.88;;
30036;SDS011;36325;51.512;-0.382;2023-02-28T17:12:48;8.82;;;4.00;;
30036;SDS011;36325;51.512;-0.382;2023-02-28T17:15:17;26.85;;;9.13;;
30036;SDS011;36325;51.512;-0.382;2023-02-28T17:17:47;32.42;;;11.65;;
30036;SDS011;36325;51.512;-0.382;2023-02-28T17:20:20;13.13;;;3.78;;
30036;SDS011;36325;51.512;-0.382;2023-02-28T17:22:55;14.30;;;5.32;;
30036;SDS011;36325;51.512;-0.382;2023-02-28T17:25:23;3.20;;;1.20;;
30036;SDS011;36325;51.512;-0.382;2023-02-28T17:27:51;6.00;;;1.73;;
30036;SDS011;36325;51.512;-0.382;2023-02-28T17:30:22;2.72;;;1.00;;
30036;SDS011;36325;51.512;-0.382;2023-02-28T17:32:54;6.35;;;1.60;;
30036;SDS011;36325;51.512;-0.382;2023-02-28T17:35:22;3.88;;;1.05;;
30036;SDS011;36325;51.512;-0.382;2023-02-28T17:37:50;9.80;;;2.72;;
30036;SDS011;36325;51.512;-0.382;2023-02-28T17:40:18;4.95;;;1.35;;
30036;SDS011;36325;51.512;-0.382;2023-02-28T17:42:47;4.53;;;1.30;;